createdAt,value
2017-03-26T00:00:42.317Z,0
2017-03-26T00:01:53.357Z,0
2017-03-26T00:03:04.543Z,0
2017-03-26T00:04:15.546Z,0
2017-03-26T00:05:26.538Z,0
2017-03-26T00:06:37.530Z,0
2017-03-26T00:07:48.531Z,0
2017-03-26T00:08:59.524Z,0
2017-03-26T00:10:10.717Z,0
2017-03-26T00:11:21.706Z,0
2017-03-26T00:12:32.702Z,0
2017-03-26T00:13:43.701Z,0
2017-03-26T00:14:54.890Z,0
2017-03-26T00:16:05.881Z,0
2017-03-26T00:17:16.870Z,0
2017-03-26T00:18:27.970Z,0
2017-03-26T00:19:38.969Z,0
2017-03-26T00:20:49.956Z,0
2017-03-26T00:22:00.949Z,0
2017-03-26T00:23:11.938Z,0
2017-03-26T00:24:22.925Z,0
2017-03-26T00:25:33.917Z,0
2017-03-26T00:26:44.911Z,0
2017-03-26T00:27:55.899Z,0
2017-03-26T00:29:06.898Z,0
2017-03-26T00:30:17.893Z,0
2017-03-26T00:31:29.077Z,0
2017-03-26T00:32:40.278Z,0
2017-03-26T00:33:51.285Z,0
2017-03-26T00:35:02.276Z,0
2017-03-26T00:36:13.277Z,0
2017-03-26T00:37:24.280Z,0
2017-03-26T00:38:35.292Z,0
2017-03-26T00:39:46.280Z,0
2017-03-26T00:40:57.282Z,0
2017-03-26T00:42:08.284Z,0
2017-03-26T00:43:19.339Z,0
2017-03-26T00:44:30.335Z,0
2017-03-26T00:45:41.320Z,0
2017-03-26T00:46:52.308Z,0
2017-03-26T00:48:03.290Z,0
2017-03-26T00:49:14.303Z,0
2017-03-26T00:50:25.311Z,0
2017-03-26T00:51:36.499Z,0
2017-03-26T00:52:47.488Z,0
2017-03-26T00:53:58.943Z,0
2017-03-26T00:55:09.929Z,0
2017-03-26T00:56:20.919Z,0
2017-03-26T00:57:31.914Z,0
2017-03-26T00:58:43.103Z,0
2017-03-26T00:59:54.102Z,0
2017-03-26T01:01:05.149Z,0
2017-03-26T01:02:16.137Z,0
2017-03-26T01:03:27.132Z,0
2017-03-26T01:04:38.116Z,0
2017-03-26T01:05:49.108Z,0
2017-03-26T01:07:00.089Z,0
2017-03-26T01:08:11.080Z,0
2017-03-26T01:09:22.120Z,0
2017-03-26T01:10:33.116Z,0
2017-03-26T01:11:44.101Z,0
2017-03-26T01:12:55.291Z,0
2017-03-26T01:14:06.284Z,0
2017-03-26T01:15:17.285Z,0
2017-03-26T01:16:28.276Z,0
2017-03-26T01:17:39.277Z,0
2017-03-26T01:18:50.263Z,0
2017-03-26T01:20:01.307Z,0
2017-03-26T01:21:12.298Z,0
2017-03-26T01:22:23.505Z,0
2017-03-26T01:23:34.704Z,0
2017-03-26T01:24:45.905Z,0
2017-03-26T01:25:57.095Z,0
2017-03-26T01:27:08.488Z,0
2017-03-26T01:28:19.470Z,0
2017-03-26T01:29:30.924Z,0
2017-03-26T01:30:41.963Z,0
2017-03-26T01:31:53.360Z,0
2017-03-26T01:33:04.359Z,0
2017-03-26T01:34:15.550Z,0
2017-03-26T01:35:26.543Z,0
2017-03-26T01:36:37.527Z,0
2017-03-26T01:37:48.722Z,0
2017-03-26T01:38:59.912Z,0
2017-03-26T01:40:11.094Z,0
2017-03-26T01:41:22.329Z,0
2017-03-26T01:42:33.320Z,0
2017-03-26T01:43:44.310Z,0
2017-03-26T01:44:55.300Z,0
2017-03-26T01:46:06.291Z,0
2017-03-26T01:47:17.281Z,0
2017-03-26T01:48:28.267Z,0
2017-03-26T01:49:39.262Z,0
2017-03-26T01:50:50.255Z,0
2017-03-26T01:52:01.456Z,0
2017-03-26T01:53:12.455Z,0
2017-03-26T01:54:23.451Z,0
2017-03-26T01:55:34.444Z,0
2017-03-26T01:56:45.431Z,0
2017-03-26T01:57:56.678Z,0
2017-03-26T01:59:07.674Z,0
2017-03-26T02:00:18.658Z,0
2017-03-26T02:01:29.850Z,0
2017-03-26T02:02:40.831Z,0
2017-03-26T02:03:51.823Z,0
2017-03-26T02:05:03.016Z,0
2017-03-26T02:06:14.004Z,0
2017-03-26T02:07:24.996Z,0
2017-03-26T02:08:36.052Z,0
2017-03-26T02:09:47.044Z,0
2017-03-26T02:10:58.028Z,0
2017-03-26T02:12:09.019Z,0
2017-03-26T02:13:20.019Z,0
2017-03-26T02:14:31.008Z,0
2017-03-26T02:15:41.998Z,0
2017-03-26T02:16:52.983Z,0
2017-03-26T02:18:04.193Z,0
2017-03-26T02:19:15.440Z,0
2017-03-26T02:20:26.630Z,0
2017-03-26T02:21:37.611Z,0
2017-03-26T02:22:48.600Z,0
2017-03-26T02:23:59.602Z,0
2017-03-26T02:25:10.588Z,0
2017-03-26T02:26:21.583Z,0
2017-03-26T02:27:32.579Z,0
2017-03-26T02:28:43.575Z,0
2017-03-26T02:29:54.816Z,0
2017-03-26T02:31:05.810Z,0
2017-03-26T02:32:16.789Z,0
2017-03-26T02:33:27.785Z,0
2017-03-26T02:34:38.770Z,0
2017-03-26T02:35:49.755Z,0
2017-03-26T02:37:00.738Z,0
2017-03-26T02:38:11.937Z,0
2017-03-26T02:39:22.919Z,0
2017-03-26T02:40:33.909Z,0
2017-03-26T02:41:44.937Z,0
2017-03-26T02:42:55.982Z,0
2017-03-26T02:44:07.179Z,0
2017-03-26T02:45:18.371Z,0
2017-03-26T02:46:29.357Z,0
2017-03-26T02:47:40.356Z,0
2017-03-26T02:48:51.353Z,0
2017-03-26T02:50:02.381Z,0
2017-03-26T02:51:13.618Z,0
2017-03-26T02:52:24.801Z,0
2017-03-26T02:53:35.787Z,0
2017-03-26T02:54:46.776Z,0
2017-03-26T02:55:57.771Z,0
2017-03-26T02:57:08.755Z,0
2017-03-26T02:58:20.011Z,0
2017-03-26T02:59:31.216Z,0
2017-03-26T03:00:42.200Z,0
2017-03-26T03:01:53.442Z,0
2017-03-26T03:03:04.441Z,0
2017-03-26T03:04:15.437Z,0
2017-03-26T03:05:26.433Z,0
2017-03-26T03:06:37.617Z,0
2017-03-26T03:07:48.605Z,0
2017-03-26T03:08:59.602Z,0
2017-03-26T03:10:10.591Z,0
2017-03-26T03:11:21.831Z,0
2017-03-26T03:12:32.862Z,0
2017-03-26T03:13:43.870Z,0
2017-03-26T03:14:54.853Z,0
2017-03-26T03:16:05.846Z,0
2017-03-26T03:17:16.829Z,0
2017-03-26T03:18:27.826Z,0
2017-03-26T03:19:38.810Z,0
2017-03-26T03:20:49.813Z,0
2017-03-26T03:22:00.802Z,0
2017-03-26T03:23:11.993Z,0
2017-03-26T03:24:23.215Z,0
2017-03-26T03:25:34.217Z,0
2017-03-26T03:26:45.243Z,0
2017-03-26T03:27:56.632Z,0
2017-03-26T03:29:07.869Z,0
2017-03-26T03:30:19.057Z,0
2017-03-26T03:31:30.041Z,0
2017-03-26T03:32:41.029Z,0
2017-03-26T03:33:52.021Z,0
2017-03-26T03:35:03.013Z,0
2017-03-26T03:36:14.001Z,0
2017-03-26T03:37:24.993Z,0
2017-03-26T03:38:36.029Z,0
2017-03-26T03:39:47.226Z,0
2017-03-26T03:40:58.235Z,0
2017-03-26T03:42:09.223Z,0
2017-03-26T03:43:20.216Z,0
2017-03-26T03:44:31.209Z,0
2017-03-26T03:45:42.193Z,0
2017-03-26T03:46:53.387Z,0
2017-03-26T03:48:04.386Z,0
2017-03-26T03:49:15.442Z,0
2017-03-26T03:50:26.423Z,0
2017-03-26T03:51:37.405Z,0
2017-03-26T03:52:48.395Z,0
2017-03-26T03:53:59.400Z,0
2017-03-26T03:55:10.594Z,0
2017-03-26T03:56:21.578Z,0
2017-03-26T03:57:32.565Z,0
2017-03-26T03:58:43.554Z,0
2017-03-26T03:59:54.806Z,0
2017-03-26T04:01:06.002Z,0
2017-03-26T04:02:17.184Z,0
2017-03-26T04:03:28.174Z,0
2017-03-26T04:04:39.171Z,0
2017-03-26T04:05:50.165Z,0
2017-03-26T04:07:01.151Z,0
2017-03-26T04:08:12.183Z,0
2017-03-26T04:09:23.184Z,0
2017-03-26T04:10:34.177Z,0
2017-03-26T04:11:45.159Z,0
2017-03-26T04:12:56.143Z,0
2017-03-26T04:14:07.343Z,0
2017-03-26T04:15:18.330Z,0
2017-03-26T04:16:29.372Z,0
2017-03-26T04:17:40.368Z,0
2017-03-26T04:18:51.372Z,0
2017-03-26T04:20:02.412Z,0
2017-03-26T04:21:13.590Z,0
2017-03-26T04:22:24.580Z,0
2017-03-26T04:23:35.570Z,0
2017-03-26T04:24:46.760Z,0
2017-03-26T04:25:57.797Z,0
2017-03-26T04:27:09.047Z,0
2017-03-26T04:28:20.045Z,0
2017-03-26T04:29:31.435Z,0
2017-03-26T04:30:42.426Z,0
2017-03-26T04:31:53.641Z,0
2017-03-26T04:33:04.636Z,0
2017-03-26T04:34:15.626Z,0
2017-03-26T04:35:26.617Z,0
2017-03-26T04:36:37.862Z,0
2017-03-26T04:37:49.258Z,0
2017-03-26T04:39:00.257Z,0
2017-03-26T04:40:11.244Z,0
2017-03-26T04:41:22.244Z,0
2017-03-26T04:42:33.235Z,0
2017-03-26T04:43:44.234Z,0
2017-03-26T04:44:55.224Z,0
2017-03-26T04:46:06.267Z,0
2017-03-26T04:47:17.312Z,0
2017-03-26T04:48:28.517Z,0
2017-03-26T04:49:39.557Z,0
2017-03-26T04:50:50.556Z,0
2017-03-26T04:52:01.535Z,4
2017-03-26T04:53:12.733Z,0
2017-03-26T04:54:23.722Z,4
2017-03-26T04:55:34.911Z,4
2017-03-26T04:56:45.895Z,8
2017-03-26T04:57:57.080Z,4
2017-03-26T04:59:08.275Z,8
2017-03-26T05:00:19.272Z,8
2017-03-26T05:01:30.267Z,8
2017-03-26T05:02:41.258Z,16
2017-03-26T05:03:52.456Z,16
2017-03-26T05:05:03.639Z,16
2017-03-26T05:06:14.628Z,20
2017-03-26T05:07:25.611Z,24
2017-03-26T05:08:36.865Z,28
2017-03-26T05:09:47.865Z,32
2017-03-26T05:10:58.853Z,36
2017-03-26T05:12:09.886Z,40
2017-03-26T05:13:21.082Z,44
2017-03-26T05:14:32.066Z,52
2017-03-26T05:15:43.055Z,56
2017-03-26T05:16:54.242Z,64
2017-03-26T05:18:05.245Z,68
2017-03-26T05:19:16.294Z,72
2017-03-26T05:20:27.290Z,80
2017-03-26T05:21:38.287Z,92
2017-03-26T05:22:49.482Z,108
2017-03-26T05:24:00.489Z,128
2017-03-26T05:25:11.478Z,136
2017-03-26T05:26:22.468Z,152
2017-03-26T05:27:33.464Z,176
2017-03-26T05:28:44.513Z,196
2017-03-26T05:29:55.764Z,228
2017-03-26T05:31:06.785Z,256
2017-03-26T05:32:17.966Z,280
2017-03-26T05:33:29.161Z,304
2017-03-26T05:34:40.152Z,312
2017-03-26T05:35:51.144Z,344
2017-03-26T05:37:02.129Z,372
2017-03-26T05:38:13.313Z,380
2017-03-26T05:39:24.311Z,416
2017-03-26T05:40:35.296Z,428
2017-03-26T05:41:46.280Z,420
2017-03-26T05:42:57.266Z,444
2017-03-26T05:44:08.298Z,468
2017-03-26T05:45:19.548Z,532
2017-03-26T05:46:30.530Z,548
2017-03-26T05:47:41.524Z,612
2017-03-26T05:48:52.717Z,636
2017-03-26T05:50:03.729Z,628
2017-03-26T05:51:14.719Z,668
2017-03-26T05:52:25.911Z,704
2017-03-26T05:53:36.901Z,784
2017-03-26T05:54:47.886Z,800
2017-03-26T05:55:58.926Z,840
2017-03-26T05:57:09.917Z,936
2017-03-26T05:58:20.915Z,1052
2017-03-26T05:59:31.913Z,1160
2017-03-26T06:00:42.896Z,1236
2017-03-26T06:01:54.091Z,1244
2017-03-26T06:03:05.081Z,1388
2017-03-26T06:04:16.279Z,1532
2017-03-26T06:05:27.259Z,1704
2017-03-26T06:06:38.241Z,1772
2017-03-26T06:07:49.435Z,1872
2017-03-26T06:09:00.434Z,2188
2017-03-26T06:10:11.427Z,2528
2017-03-26T06:11:22.875Z,2564
2017-03-26T06:12:33.864Z,2892
2017-03-26T06:13:44.848Z,3192
2017-03-26T06:14:55.839Z,3568
2017-03-26T06:16:07.046Z,3956
2017-03-26T06:17:18.027Z,5084
2017-03-26T06:18:29.029Z,6676
2017-03-26T06:19:40.028Z,7784
2017-03-26T06:20:51.021Z,7632
2017-03-26T06:22:02.021Z,7524
2017-03-26T06:23:13.016Z,7548
2017-03-26T06:24:24.009Z,7680
2017-03-26T06:25:35.191Z,7772
2017-03-26T06:26:46.190Z,7532
2017-03-26T06:27:57.603Z,7596
2017-03-26T06:29:08.603Z,8112
2017-03-26T06:30:19.591Z,8680
2017-03-26T06:31:30.790Z,9864
2017-03-26T06:32:41.787Z,10896
2017-03-26T06:33:52.986Z,11712
2017-03-26T06:35:03.986Z,12680
2017-03-26T06:36:14.980Z,15232
2017-03-26T06:37:25.976Z,14032
2017-03-26T06:38:36.964Z,13432
2017-03-26T06:39:47.964Z,13988
2017-03-26T06:40:58.959Z,16704
2017-03-26T06:42:10.201Z,17696
2017-03-26T06:43:21.192Z,17504
2017-03-26T06:44:32.193Z,15936
2017-03-26T06:45:43.186Z,14492
2017-03-26T06:46:54.370Z,16512
2017-03-26T06:48:05.368Z,21472
2017-03-26T06:49:16.359Z,23040
2017-03-26T06:50:27.350Z,26656
2017-03-26T06:51:38.343Z,33632
2017-03-26T06:52:49.385Z,30432
2017-03-26T06:54:00.391Z,29408
2017-03-26T06:55:11.586Z,35360
2017-03-26T06:56:22.790Z,31968
2017-03-26T06:57:33.782Z,36064
2017-03-26T06:58:44.785Z,38464
2017-03-26T06:59:55.778Z,38880
2017-03-26T07:01:06.769Z,40032
2017-03-26T07:02:17.768Z,36960
2017-03-26T07:03:28.775Z,36224
2017-03-26T07:04:39.777Z,34592
2017-03-26T07:05:50.779Z,29248
2017-03-26T07:07:01.791Z,26368
2017-03-26T07:08:12.796Z,31648
2017-03-26T07:09:23.798Z,36416
2017-03-26T07:10:34.812Z,33440
2017-03-26T07:11:45.806Z,35840
2017-03-26T07:12:56.834Z,36896
2017-03-26T07:14:08.031Z,29440
2017-03-26T07:15:19.031Z,38240
2017-03-26T07:16:30.085Z,39008
2017-03-26T07:17:41.086Z,38112
2017-03-26T07:18:52.088Z,41024
2017-03-26T07:20:03.094Z,41120
2017-03-26T07:21:14.295Z,42272
2017-03-26T07:22:25.287Z,40384
2017-03-26T07:23:36.295Z,38560
2017-03-26T07:24:47.949Z,35680
2017-03-26T07:25:59.147Z,33472
2017-03-26T07:27:10.148Z,32416
2017-03-26T07:28:21.147Z,31264
2017-03-26T07:29:32.145Z,36224
2017-03-26T07:30:43.345Z,35296
2017-03-26T07:31:54.349Z,44480
2017-03-26T07:33:05.350Z,44832
2017-03-26T07:34:16.354Z,40832
2017-03-26T07:35:27.375Z,44224
2017-03-26T07:36:38.586Z,43232
2017-03-26T07:37:49.589Z,43872
2017-03-26T07:39:00.639Z,36672
2017-03-26T07:40:11.684Z,40512
2017-03-26T07:41:22.672Z,38944
2017-03-26T07:42:33.668Z,35520
2017-03-26T07:43:44.675Z,37344
2017-03-26T07:44:55.688Z,48320
2017-03-26T07:46:06.695Z,54240
2017-03-26T07:47:17.702Z,53504
2017-03-26T07:48:28.722Z,49984
2017-03-26T07:49:39.786Z,49216
2017-03-26T07:50:50.796Z,43360
2017-03-26T07:52:01.791Z,47808
2017-03-26T07:53:12.999Z,47392
2017-03-26T07:54:24.012Z,49024
2017-03-26T07:55:35.023Z,48288
2017-03-26T07:56:46.231Z,49952
2017-03-26T07:57:57.236Z,52896
2017-03-26T07:59:08.454Z,55744
2017-03-26T08:00:19.473Z,58144
2017-03-26T08:01:30.466Z,52480
2017-03-26T08:02:41.675Z,57632
2017-03-26T08:03:52.894Z,56768
2017-03-26T08:05:04.104Z,58944
2017-03-26T08:06:15.104Z,59232
2017-03-26T08:07:26.315Z,58688
2017-03-26T08:08:37.323Z,57536
2017-03-26T08:09:48.374Z,53760
2017-03-26T08:10:59.601Z,56800
2017-03-26T08:12:10.806Z,59488
2017-03-26T08:13:21.820Z,59040
2017-03-26T08:14:32.831Z,58400
2017-03-26T08:15:43.837Z,62080
2017-03-26T08:16:54.833Z,61312
2017-03-26T08:18:05.857Z,61344
2017-03-26T08:19:16.873Z,55264
2017-03-26T08:20:27.878Z,60896
2017-03-26T08:21:39.077Z,61536
2017-03-26T08:22:50.077Z,60416
2017-03-26T08:24:01.092Z,61472
2017-03-26T08:25:12.100Z,51264
2017-03-26T08:26:23.102Z,42400
2017-03-26T08:27:34.155Z,32608
2017-03-26T08:28:45.363Z,35040
2017-03-26T08:29:56.368Z,40224
2017-03-26T08:31:07.617Z,45920
2017-03-26T08:32:18.617Z,48480
2017-03-26T08:33:29.625Z,47968
2017-03-26T08:34:40.675Z,65152
2017-03-26T08:35:51.682Z,66112
2017-03-26T08:37:02.681Z,60608
2017-03-26T08:38:13.883Z,64640
2017-03-26T08:39:25.106Z,65312
2017-03-26T08:40:36.371Z,69952
2017-03-26T08:41:47.577Z,73760
2017-03-26T08:42:58.590Z,73696
2017-03-26T08:44:09.609Z,66368
2017-03-26T08:45:20.617Z,61344
2017-03-26T08:46:31.631Z,58528
2017-03-26T08:47:42.635Z,55392
2017-03-26T08:48:53.636Z,54816
2017-03-26T08:50:04.642Z,57504
2017-03-26T08:51:15.859Z,55136
2017-03-26T08:52:27.076Z,52800
2017-03-26T08:53:38.285Z,65184
2017-03-26T08:54:49.288Z,65600
2017-03-26T08:56:00.353Z,62368
2017-03-26T08:57:11.378Z,47872
2017-03-26T08:58:22.397Z,41088
2017-03-26T08:59:33.401Z,37728
2017-03-26T09:00:44.504Z,44384
2017-03-26T09:01:55.503Z,60736
2017-03-26T09:03:06.534Z,47008
2017-03-26T09:04:17.547Z,40224
2017-03-26T09:05:28.550Z,45344
2017-03-26T09:06:39.559Z,45952
2017-03-26T09:07:50.771Z,53120
2017-03-26T09:09:01.779Z,72992
2017-03-26T09:10:12.782Z,61152
2017-03-26T09:11:23.787Z,72864
2017-03-26T09:12:34.790Z,63456
2017-03-26T09:13:45.830Z,65952
2017-03-26T09:14:56.848Z,51200
2017-03-26T09:16:07.854Z,59808
2017-03-26T09:17:18.859Z,50656
2017-03-26T09:18:29.870Z,59200
2017-03-26T09:19:41.281Z,54240
2017-03-26T09:20:52.502Z,51584
2017-03-26T09:22:03.550Z,53696
2017-03-26T09:23:14.773Z,58528
2017-03-26T09:24:25.998Z,61408
2017-03-26T09:25:37.020Z,53760
2017-03-26T09:26:48.228Z,49120
2017-03-26T09:27:59.243Z,40896
2017-03-26T09:29:10.271Z,35488
2017-03-26T09:30:21.283Z,52064
2017-03-26T09:31:32.296Z,58656
2017-03-26T09:32:43.520Z,50688
2017-03-26T09:33:54.538Z,39392
2017-03-26T09:35:05.560Z,58144
2017-03-26T09:36:16.576Z,51680
2017-03-26T09:37:27.635Z,71104
2017-03-26T09:38:39.041Z,75776
2017-03-26T09:39:50.095Z,44576
2017-03-26T09:41:01.114Z,67360
2017-03-26T09:42:12.127Z,50432
2017-03-26T09:43:23.204Z,49152
2017-03-26T09:44:34.231Z,31360
2017-03-26T09:45:45.233Z,29504
2017-03-26T09:46:56.447Z,72960
2017-03-26T09:48:07.662Z,82880
2017-03-26T09:49:18.666Z,80000
2017-03-26T09:50:29.671Z,67712
2017-03-26T09:51:41.078Z,83008
2017-03-26T09:52:52.093Z,57536
2017-03-26T09:54:03.358Z,79200
2017-03-26T09:55:14.368Z,74208
2017-03-26T09:56:25.383Z,74592
2017-03-26T09:57:36.401Z,73120
2017-03-26T09:58:47.417Z,74464
2017-03-26T09:59:58.435Z,69600
2017-03-26T10:01:09.453Z,68544
2017-03-26T10:02:20.452Z,74720
2017-03-26T10:03:31.454Z,72640
2017-03-26T10:04:42.664Z,65984
2017-03-26T10:05:53.682Z,72224
2017-03-26T10:07:04.698Z,73600
2017-03-26T10:08:15.767Z,71648
2017-03-26T10:09:26.779Z,71904
2017-03-26T10:10:37.789Z,68960
2017-03-26T10:11:48.795Z,70976
2017-03-26T10:12:59.808Z,70368
2017-03-26T10:14:10.833Z,70912
2017-03-26T10:15:21.844Z,72512
2017-03-26T10:16:32.860Z,54432
2017-03-26T10:17:43.935Z,69344
2017-03-26T10:18:54.946Z,69216
2017-03-26T10:20:05.962Z,69088
2017-03-26T10:21:16.976Z,71744
2017-03-26T10:22:27.980Z,71648
2017-03-26T10:23:38.998Z,69984
2017-03-26T10:24:50.271Z,70656
2017-03-26T10:26:01.283Z,72416
2017-03-26T10:27:12.299Z,71872
2017-03-26T10:28:23.311Z,71616
2017-03-26T10:29:34.320Z,68864
2017-03-26T10:30:45.335Z,69344
2017-03-26T10:31:56.355Z,69184
2017-03-26T10:33:07.385Z,67648
2017-03-26T10:34:18.401Z,67840
2017-03-26T10:35:29.644Z,56064
2017-03-26T10:36:40.655Z,57408
2017-03-26T10:37:51.682Z,56320
2017-03-26T10:39:02.899Z,52000
2017-03-26T10:40:13.968Z,57664
2017-03-26T10:41:25.191Z,63200
2017-03-26T10:42:36.205Z,49248
2017-03-26T10:43:47.223Z,55456
2017-03-26T10:44:58.248Z,56224
2017-03-26T10:46:09.460Z,62528
2017-03-26T10:47:20.676Z,62016
2017-03-26T10:48:31.956Z,60032
2017-03-26T10:49:43.027Z,48480
2017-03-26T10:50:54.041Z,53984
2017-03-26T10:52:05.091Z,52224
2017-03-26T10:53:16.106Z,54848
2017-03-26T10:54:27.120Z,41376
2017-03-26T10:55:38.129Z,43168
2017-03-26T10:56:49.142Z,53056
2017-03-26T10:58:00.157Z,48928
2017-03-26T10:59:11.170Z,48832
2017-03-26T11:00:22.184Z,49248
2017-03-26T11:01:33.201Z,49952
2017-03-26T11:02:44.220Z,47232
2017-03-26T11:03:55.434Z,45184
2017-03-26T11:05:06.710Z,43552
2017-03-26T11:06:17.735Z,43200
2017-03-26T11:07:28.748Z,43872
2017-03-26T11:08:40.020Z,42528
2017-03-26T11:09:51.032Z,38304
2017-03-26T11:11:02.043Z,39008
2017-03-26T11:12:13.062Z,41024
2017-03-26T11:13:24.099Z,40416
2017-03-26T11:14:35.118Z,39104
2017-03-26T11:15:46.427Z,37920
2017-03-26T11:16:57.441Z,37856
2017-03-26T11:18:08.475Z,39424
2017-03-26T11:19:19.522Z,37856
2017-03-26T11:20:30.542Z,38720
2017-03-26T11:21:41.553Z,37472
2017-03-26T11:22:52.573Z,38240
2017-03-26T11:24:03.807Z,38368
2017-03-26T11:25:14.818Z,39200
2017-03-26T11:26:26.079Z,37248
2017-03-26T11:27:37.092Z,36608
2017-03-26T11:28:48.114Z,37504
2017-03-26T11:29:59.131Z,35072
2017-03-26T11:31:10.146Z,35040
2017-03-26T11:32:21.161Z,34592
2017-03-26T11:33:32.171Z,32896
2017-03-26T11:34:43.177Z,33952
2017-03-26T11:35:54.194Z,33536
2017-03-26T11:37:05.453Z,36160
2017-03-26T11:38:16.472Z,35744
2017-03-26T11:39:27.483Z,36064
2017-03-26T11:40:38.897Z,34848
2017-03-26T11:41:50.099Z,32480
2017-03-26T11:43:01.110Z,33408
2017-03-26T11:44:12.110Z,31456
2017-03-26T11:45:23.139Z,27040
2017-03-26T11:46:34.154Z,25056
2017-03-26T11:47:45.368Z,22912
2017-03-26T11:48:56.378Z,24128
2017-03-26T11:50:07.394Z,25088
2017-03-26T11:51:18.606Z,24000
2017-03-26T11:52:29.616Z,23552
2017-03-26T11:53:40.676Z,23104
2017-03-26T11:54:51.698Z,23616
2017-03-26T11:56:02.912Z,25376
2017-03-26T11:57:13.923Z,26464
2017-03-26T11:58:25.136Z,26272
2017-03-26T11:59:36.356Z,28096
2017-03-26T12:00:47.363Z,29952
2017-03-26T12:01:58.374Z,29184
2017-03-26T12:03:09.431Z,28192
2017-03-26T12:04:20.437Z,29696
2017-03-26T12:05:31.444Z,29056
2017-03-26T12:06:42.451Z,28928
2017-03-26T12:07:53.664Z,30592
2017-03-26T12:09:04.667Z,28544
2017-03-26T12:10:15.672Z,29120
2017-03-26T12:11:26.677Z,28896
2017-03-26T12:12:37.693Z,28096
2017-03-26T12:13:48.767Z,28224
2017-03-26T12:14:59.779Z,26912
2017-03-26T12:16:10.789Z,26976
2017-03-26T12:17:21.793Z,26656
2017-03-26T12:18:32.801Z,25792
2017-03-26T12:19:43.808Z,25024
2017-03-26T12:20:55.010Z,25824
2017-03-26T12:22:06.022Z,25920
2017-03-26T12:23:17.042Z,24352
2017-03-26T12:24:28.308Z,21344
2017-03-26T12:25:39.317Z,21344
2017-03-26T12:26:50.325Z,16288
2017-03-26T12:28:01.551Z,21632
2017-03-26T12:29:12.553Z,21600
2017-03-26T12:30:23.558Z,20416
2017-03-26T12:31:34.567Z,18816
2017-03-26T12:32:45.569Z,19072
2017-03-26T12:33:56.585Z,18880
2017-03-26T12:35:07.795Z,18144
2017-03-26T12:36:19.038Z,17024
2017-03-26T12:37:30.049Z,15360
2017-03-26T12:38:41.072Z,14240
2017-03-26T12:39:52.082Z,13548
2017-03-26T12:41:03.328Z,13208
2017-03-26T12:42:14.334Z,13136
2017-03-26T12:43:25.356Z,12200
2017-03-26T12:44:36.591Z,12580
2017-03-26T12:45:47.639Z,11780
2017-03-26T12:46:58.639Z,11476
2017-03-26T12:48:09.852Z,10332
2017-03-26T12:49:21.075Z,9748
2017-03-26T12:50:32.149Z,10368
2017-03-26T12:51:43.156Z,11960
2017-03-26T12:52:54.161Z,10728
2017-03-26T12:54:05.168Z,10256
2017-03-26T12:55:16.369Z,10628
2017-03-26T12:56:27.818Z,10324
2017-03-26T12:57:38.819Z,10228
2017-03-26T12:58:49.828Z,10196
2017-03-26T13:00:00.838Z,9608
2017-03-26T13:01:11.844Z,9156
2017-03-26T13:02:22.854Z,9172
2017-03-26T13:03:33.850Z,9180
2017-03-26T13:04:44.860Z,9264
2017-03-26T13:05:55.867Z,9244
2017-03-26T13:07:07.117Z,8880
2017-03-26T13:08:18.323Z,8568
2017-03-26T13:09:29.329Z,8572
2017-03-26T13:10:40.335Z,8772
2017-03-26T13:11:51.543Z,8504
2017-03-26T13:13:02.540Z,8276
2017-03-26T13:14:13.556Z,8184
2017-03-26T13:15:24.551Z,8060
2017-03-26T13:16:35.561Z,8016
2017-03-26T13:17:46.577Z,7680
2017-03-26T13:18:57.588Z,7648
2017-03-26T13:20:08.804Z,7540
2017-03-26T13:21:19.807Z,7488
2017-03-26T13:22:30.811Z,7612
2017-03-26T13:23:42.071Z,7604
2017-03-26T13:24:53.071Z,7292
2017-03-26T13:26:04.075Z,7280
2017-03-26T13:27:15.349Z,7380
2017-03-26T13:28:26.346Z,7480
2017-03-26T13:29:37.349Z,7588
2017-03-26T13:30:48.366Z,7984
2017-03-26T13:31:59.371Z,7884
2017-03-26T13:33:10.569Z,7464
2017-03-26T13:34:21.833Z,7476
2017-03-26T13:35:32.848Z,7636
2017-03-26T13:36:44.254Z,7796
2017-03-26T13:37:55.258Z,7768
2017-03-26T13:39:06.280Z,7724
2017-03-26T13:40:17.284Z,7792
2017-03-26T13:41:28.284Z,7756
2017-03-26T13:42:39.288Z,7652
2017-03-26T13:43:50.348Z,7672
2017-03-26T13:45:01.604Z,7508
2017-03-26T13:46:12.812Z,7560
2017-03-26T13:47:23.814Z,7500
2017-03-26T13:48:34.830Z,7324
2017-03-26T13:49:45.828Z,7172
2017-03-26T13:50:57.024Z,7412
2017-03-26T13:52:08.227Z,7728
2017-03-26T13:53:19.434Z,7844
2017-03-26T13:54:30.439Z,7748
2017-03-26T13:55:41.680Z,7960
2017-03-26T13:56:52.676Z,8000
2017-03-26T13:58:03.694Z,7732
2017-03-26T13:59:14.696Z,8068
2017-03-26T14:00:25.688Z,7976
2017-03-26T14:01:36.893Z,8036
2017-03-26T14:02:48.299Z,8232
2017-03-26T14:03:59.316Z,8288
2017-03-26T14:05:10.525Z,7408
2017-03-26T14:06:21.518Z,7964
2017-03-26T14:07:32.767Z,8092
2017-03-26T14:08:43.779Z,8372
2017-03-26T14:09:54.785Z,8376
2017-03-26T14:11:05.787Z,8168
2017-03-26T14:12:16.796Z,8068
2017-03-26T14:13:27.810Z,8176
2017-03-26T14:14:38.807Z,8396
2017-03-26T14:15:49.803Z,8224
2017-03-26T14:17:01.076Z,8540
2017-03-26T14:18:12.076Z,8268
2017-03-26T14:19:23.086Z,9172
2017-03-26T14:20:34.079Z,10252
2017-03-26T14:21:45.125Z,10944
2017-03-26T14:22:56.125Z,11372
2017-03-26T14:24:07.135Z,11708
2017-03-26T14:25:18.154Z,11168
2017-03-26T14:26:29.150Z,10728
2017-03-26T14:27:40.394Z,9796
2017-03-26T14:28:51.401Z,9292
2017-03-26T14:30:02.413Z,9564
2017-03-26T14:31:13.403Z,10096
2017-03-26T14:32:24.608Z,8452
2017-03-26T14:33:35.602Z,8068
2017-03-26T14:34:46.609Z,8968
2017-03-26T14:35:57.608Z,7496
2017-03-26T14:37:08.598Z,6152
2017-03-26T14:38:19.855Z,5872
2017-03-26T14:39:30.863Z,5740
2017-03-26T14:40:41.866Z,5668
2017-03-26T14:41:53.067Z,5628
2017-03-26T14:43:04.078Z,5596
2017-03-26T14:44:15.077Z,5588
2017-03-26T14:45:26.074Z,5564
2017-03-26T14:46:37.072Z,5544
2017-03-26T14:47:48.075Z,5504
2017-03-26T14:48:59.085Z,5456
2017-03-26T14:50:10.741Z,5404
2017-03-26T14:51:21.944Z,5404
2017-03-26T14:52:32.941Z,5424
2017-03-26T14:53:43.988Z,5400
2017-03-26T14:54:54.999Z,5376
2017-03-26T14:56:06.063Z,5336
2017-03-26T14:57:17.076Z,5308
2017-03-26T14:58:28.071Z,5264
2017-03-26T14:59:39.322Z,5244
2017-03-26T15:00:50.317Z,5208
2017-03-26T15:02:01.305Z,5180
2017-03-26T15:03:12.299Z,5148
2017-03-26T15:04:23.311Z,5120
2017-03-26T15:05:34.344Z,5084
2017-03-26T15:06:45.334Z,5044
2017-03-26T15:07:56.330Z,5008
2017-03-26T15:09:07.337Z,4940
2017-03-26T15:10:18.582Z,5000
2017-03-26T15:11:29.573Z,5012
2017-03-26T15:12:40.578Z,4980
2017-03-26T15:13:51.584Z,4992
2017-03-26T15:15:02.623Z,4992
2017-03-26T15:16:13.623Z,4956
2017-03-26T15:17:24.677Z,4944
2017-03-26T15:18:35.888Z,4884
2017-03-26T15:19:46.887Z,4852
2017-03-26T15:20:57.940Z,4832
2017-03-26T15:22:08.949Z,4828
2017-03-26T15:23:19.954Z,4796
2017-03-26T15:24:30.957Z,4768
2017-03-26T15:25:41.957Z,4768
2017-03-26T15:26:52.955Z,4760
2017-03-26T15:28:03.953Z,4728
2017-03-26T15:29:14.954Z,4692
2017-03-26T15:30:26.026Z,4676
2017-03-26T15:31:37.026Z,4672
2017-03-26T15:32:48.313Z,4660
2017-03-26T15:33:59.324Z,4648
2017-03-26T15:35:10.331Z,4616
2017-03-26T15:36:21.522Z,4604
2017-03-26T15:37:32.517Z,4568
2017-03-26T15:38:43.722Z,4536
2017-03-26T15:39:54.720Z,4508
2017-03-26T15:41:05.918Z,4468
2017-03-26T15:42:17.165Z,4428
2017-03-26T15:43:28.170Z,4400
2017-03-26T15:44:39.367Z,4364
2017-03-26T15:45:50.360Z,4356
2017-03-26T15:47:01.359Z,4316
2017-03-26T15:48:12.366Z,4304
2017-03-26T15:49:23.429Z,4264
2017-03-26T15:50:34.433Z,4256
2017-03-26T15:51:45.434Z,4224
2017-03-26T15:52:56.879Z,4208
2017-03-26T15:54:07.873Z,4180
2017-03-26T15:55:18.863Z,4168
2017-03-26T15:56:29.867Z,4152
2017-03-26T15:57:40.869Z,4140
2017-03-26T15:58:52.078Z,4120
2017-03-26T16:00:03.085Z,4100
2017-03-26T16:01:14.085Z,4080
2017-03-26T16:02:25.079Z,4052
2017-03-26T16:03:36.087Z,3980
2017-03-26T16:04:47.301Z,3976
2017-03-26T16:05:58.298Z,3948